sensor_id;sensor_type;location;lat;lon;timestamp;temperature;humidity
55173;DHT22;41061;52.822;6.860;2023-06-22T00:00:57;18.40;99.90
55173;DHT22;41061;52.822;6.860;2023-06-22T00:03:24;18.40;99.90
55173;DHT22;41061;52.822;6.860;2023-06-22T00:05:51;18.40;99.90
55173;DHT22;41061;52.822;6.860;2023-06-22T00:08:18;18.40;99.90
55173;DHT22;41061;52.822;6.860;2023-06-22T00:10:45;18.30;99.90
55173;DHT22;41061;52.822;6.860;2023-06-22T00:13:11;18.30;99.90
55173;DHT22;41061;52.822;6.860;2023-06-22T00:15:39;18.30;99.90
55173;DHT22;41061;52.822;6.860;2023-06-22T00:18:09;18.30;99.90
55173;DHT22;41061;52.822;6.860;2023-06-22T00:20:35;18.30;99.90
55173;DHT22;41061;52.822;6.860;2023-06-22T00:23:04;18.30;99.90
55173;DHT22;41061;52.822;6.860;2023-06-22T00:25:37;18.40;99.90
55173;DHT22;41061;52.822;6.860;2023-06-22T00:28:05;18.30;99.90
55173;DHT22;41061;52.822;6.860;2023-06-22T00:30:32;18.20;99.90
55173;DHT22;41061;52.822;6.860;2023-06-22T00:32:58;18.30;99.90
55173;DHT22;41061;52.822;6.860;2023-06-22T00:35:24;18.20;99.90
55173;DHT22;41061;52.822;6.860;2023-06-22T00:37:59;18.10;99.90
55173;DHT22;41061;52.822;6.860;2023-06-22T00:40:31;18.10;99.90
55173;DHT22;41061;52.822;6.860;2023-06-22T00:42:57;18.10;99.90
55173;DHT22;41061;52.822;6.860;2023-06-22T00:45:23;18.00;99.90
55173;DHT22;41061;52.822;6.860;2023-06-22T00:47:54;18.00;99.90
55173;DHT22;41061;52.822;6.860;2023-06-22T00:50:23;17.90;99.90
55173;DHT22;41061;52.822;6.860;2023-06-22T00:52:52;17.90;99.90
55173;DHT22;41061;52.822;6.860;2023-06-22T00:55:19;17.90;99.90
55173;DHT22;41061;52.822;6.860;2023-06-22T00:57:46;17.90;99.90
55173;DHT22;41061;52.822;6.860;2023-06-22T01:00:14;17.90;99.90
55173;DHT22;41061;52.822;6.860;2023-06-22T01:02:46;17.90;99.90
55173;DHT22;41061;52.822;6.860;2023-06-22T01:05:18;17.90;99.90
55173;DHT22;41061;52.822;6.860;2023-06-22T01:10:41;18.00;99.90
55173;DHT22;41061;52.822;6.860;2023-06-22T01:15:45;18.00;99.90
55173;DHT22;41061;52.822;6.860;2023-06-22T01:18:17;17.90;99.90
55173;DHT22;41061;52.822;6.860;2023-06-22T01:20:44;17.80;99.90
55173;DHT22;41061;52.822;6.860;2023-06-22T01:26:17;17.80;99.90
55173;DHT22;41061;52.822;6.860;2023-06-22T01:28:54;17.70;99.90
55173;DHT22;41061;52.822;6.860;2023-06-22T01:31:23;17.60;99.90
55173;DHT22;41061;52.822;6.860;2023-06-22T01:34:04;17.50;99.90
55173;DHT22;41061;52.822;6.860;2023-06-22T01:36:31;17.50;99.90
55173;DHT22;41061;52.822;6.860;2023-06-22T01:38:58;17.40;99.90
55173;DHT22;41061;52.822;6.860;2023-06-22T01:41:26;17.30;99.90
55173;DHT22;41061;52.822;6.860;2023-06-22T01:43:53;17.30;99.90
55173;DHT22;41061;52.822;6.860;2023-06-22T01:46:20;17.30;99.90
55173;DHT22;41061;52.822;6.860;2023-06-22T01:48:47;17.30;99.90
55173;DHT22;41061;52.822;6.860;2023-06-22T01:51:13;17.40;99.90
55173;DHT22;41061;52.822;6.860;2023-06-22T01:53:40;17.40;99.90
55173;DHT22;41061;52.822;6.860;2023-06-22T01:56:05;17.40;99.90
55173;DHT22;41061;52.822;6.860;2023-06-22T01:58:32;17.50;99.90
55173;DHT22;41061;52.822;6.860;2023-06-22T02:01:08;17.40;99.90
55173;DHT22;41061;52.822;6.860;2023-06-22T02:03:41;17.50;99.90
55173;DHT22;41061;52.822;6.860;2023-06-22T02:06:17;17.50;99.90
55173;DHT22;41061;52.822;6.860;2023-06-22T02:08:51;17.40;99.90
55173;DHT22;41061;52.822;6.860;2023-06-22T02:11:20;17.40;99.90
55173;DHT22;41061;52.822;6.860;2023-06-22T02:13:46;17.40;99.90
55173;DHT22;41061;52.822;6.860;2023-06-22T02:16:13;17.30;99.90
55173;DHT22;41061;52.822;6.860;2023-06-22T02:18:46;17.20;99.90
55173;DHT22;41061;52.822;6.860;2023-06-22T02:21:11;17.20;99.90
55173;DHT22;41061;52.822;6.860;2023-06-22T02:23:37;17.30;99.90
55173;DHT22;41061;52.822;6.860;2023-06-22T02:26:03;17.20;99.90
55173;DHT22;41061;52.822;6.860;2023-06-22T02:28:29;17.20;99.90
55173;DHT22;41061;52.822;6.860;2023-06-22T02:30:55;17.20;99.90
55173;DHT22;41061;52.822;6.860;2023-06-22T02:33:21;17.10;99.90
55173;DHT22;41061;52.822;6.860;2023-06-22T02:35:46;17.20;99.90
55173;DHT22;41061;52.822;6.860;2023-06-22T02:38:14;17.20;99.90
55173;DHT22;41061;52.822;6.860;2023-06-22T02:40:40;17.10;99.90
55173;DHT22;41061;52.822;6.860;2023-06-22T02:43:06;17.10;99.90
55173;DHT22;41061;52.822;6.860;2023-06-22T02:45:32;17.10;99.90
